createdAt,value
2023-05-18T00:00:02.476Z,1.40
2023-05-18T00:02:29.140Z,1.40
2023-05-18T00:04:55.830Z,1.45
2023-05-18T00:07:22.505Z,1.55
2023-05-18T00:09:49.148Z,1.65
2023-05-18T00:12:15.671Z,1.70
2023-05-18T00:14:42.237Z,1.40
2023-05-18T00:17:08.656Z,1.40
2023-05-18T00:19:35.084Z,1.45
2023-05-18T00:22:02.314Z,1.48
2023-05-18T00:24:28.866Z,1.13
2023-05-18T00:26:55.373Z,1.60
2023-05-18T00:29:21.833Z,1.58
2023-05-18T00:31:48.406Z,1.75
2023-05-18T00:34:16.001Z,1.52
2023-05-18T00:36:42.622Z,1.38
2023-05-18T00:39:09.498Z,1.40
2023-05-18T00:41:36.334Z,1.60
2023-05-18T00:44:04.692Z,1.40
2023-05-18T00:46:32.040Z,1.30
2023-05-18T00:48:59.069Z,1.30
2023-05-18T00:51:26.223Z,1.48
2023-05-18T00:53:54.937Z,1.40
2023-05-18T00:56:26.344Z,1.50
2023-05-18T00:58:55.618Z,1.33
2023-05-18T01:01:28.866Z,1.70
2023-05-18T01:03:56.683Z,1.50
2023-05-18T01:06:26.640Z,1.15
2023-05-18T01:08:54.471Z,1.52
2023-05-18T01:11:33.701Z,1.40
2023-05-18T01:14:12.758Z,1.40
2023-05-18T01:16:54.366Z,1.27
2023-05-18T01:19:51.829Z,1.30
2023-05-18T01:22:33.716Z,1.45
2023-05-18T01:25:09.073Z,1.50
2023-05-18T01:27:37.644Z,1.30
2023-05-18T01:30:08.492Z,1.42
2023-05-18T01:32:42.621Z,1.50
2023-05-18T01:35:09.507Z,1.35
2023-05-18T01:37:35.976Z,1.50
2023-05-18T01:40:04.981Z,1.38
2023-05-18T01:42:34.502Z,1.52
2023-05-18T01:45:09.600Z,1.70
2023-05-18T01:47:39.978Z,1.40
2023-05-18T01:50:13.650Z,1.33
2023-05-18T01:52:45.521Z,1.30
2023-05-18T01:55:14.382Z,1.48
2023-05-18T01:57:44.525Z,1.40
2023-05-18T02:00:12.671Z,1.50
2023-05-18T02:02:39.372Z,1.70
2023-05-18T02:05:07.691Z,1.33
2023-05-18T02:07:34.228Z,1.50
2023-05-18T02:10:00.725Z,1.60
2023-05-18T02:12:27.255Z,1.50
2023-05-18T02:14:55.278Z,1.40
2023-05-18T02:17:22.284Z,1.52
2023-05-18T02:19:48.808Z,1.83
2023-05-18T02:22:15.717Z,1.40
2023-05-18T02:24:42.165Z,1.50
2023-05-18T02:27:08.615Z,1.25
2023-05-18T02:29:35.031Z,1.60
2023-05-18T02:32:01.564Z,1.30
2023-05-18T02:34:32.936Z,1.45
2023-05-18T02:37:04.057Z,1.48
2023-05-18T02:39:30.749Z,1.38
2023-05-18T02:41:57.196Z,1.30
2023-05-18T02:44:23.692Z,1.40
2023-05-18T02:46:50.120Z,1.52
2023-05-18T02:49:16.657Z,1.27
2023-05-18T02:51:43.114Z,1.38
2023-05-18T02:54:09.573Z,1.40
2023-05-18T02:56:36.424Z,1.60
2023-05-18T02:59:03.983Z,1.40
2023-05-18T03:01:30.698Z,1.50
2023-05-18T03:04:00.294Z,1.67
2023-05-18T03:06:27.373Z,1.45
2023-05-18T03:08:56.812Z,1.60
2023-05-18T03:11:24.611Z,1.70
2023-05-18T03:13:51.227Z,1.50
2023-05-18T03:16:18.653Z,1.25
2023-05-18T03:18:45.194Z,1.48
2023-05-18T03:21:13.652Z,1.40
2023-05-18T03:23:40.671Z,1.30
2023-05-18T03:26:11.303Z,1.63
2023-05-18T03:28:38.922Z,1.35
2023-05-18T03:31:05.799Z,1.38
2023-05-18T03:33:32.427Z,1.50
2023-05-18T03:36:03.289Z,1.33
2023-05-18T03:38:30.015Z,1.33
2023-05-18T03:40:56.564Z,1.50
2023-05-18T03:43:25.815Z,1.48
2023-05-18T03:45:53.009Z,1.40
2023-05-18T03:48:19.522Z,1.55
2023-05-18T03:50:46.568Z,1.30
2023-05-18T03:53:13.416Z,1.52
2023-05-18T03:55:39.885Z,1.50
2023-05-18T03:58:06.360Z,1.58
2023-05-18T04:00:32.830Z,1.30
2023-05-18T04:02:59.279Z,1.60
2023-05-18T04:05:25.939Z,1.35
2023-05-18T04:07:52.422Z,1.40
2023-05-18T04:10:19.700Z,1.35
2023-05-18T04:12:46.425Z,1.40
2023-05-18T04:15:14.595Z,1.35
2023-05-18T04:17:45.882Z,1.35
2023-05-18T04:20:14.321Z,1.40
2023-05-18T04:22:48.932Z,1.40
2023-05-18T04:25:16.344Z,1.23
2023-05-18T04:27:45.311Z,1.40
2023-05-18T04:30:12.952Z,1.35
2023-05-18T04:32:42.844Z,1.42
2023-05-18T04:35:11.047Z,1.42
2023-05-18T04:37:40.255Z,1.30
2023-05-18T04:40:09.039Z,1.70
2023-05-18T04:42:35.657Z,1.52
2023-05-18T04:45:05.841Z,1.45
2023-05-18T04:47:32.865Z,1.30
2023-05-18T04:49:59.413Z,1.30
2023-05-18T04:52:26.268Z,1.50
2023-05-18T04:54:52.932Z,1.60
2023-05-18T04:57:19.416Z,1.50
2023-05-18T04:59:47.558Z,1.30
2023-05-18T05:02:14.566Z,1.48
2023-05-18T05:04:41.949Z,1.13
2023-05-18T05:07:08.403Z,1.40
2023-05-18T05:09:34.835Z,1.40
2023-05-18T05:12:02.165Z,1.35
2023-05-18T05:14:28.614Z,1.25
2023-05-18T05:16:55.179Z,1.25
2023-05-18T05:19:21.707Z,1.33
2023-05-18T05:21:48.373Z,1.40
2023-05-18T05:24:14.833Z,1.33
2023-05-18T05:26:41.312Z,1.30
2023-05-18T05:29:07.758Z,1.50
2023-05-18T05:31:34.778Z,1.30
2023-05-18T05:34:01.618Z,1.15
2023-05-18T05:36:28.150Z,1.50
2023-05-18T05:38:54.667Z,1.45
2023-05-18T05:41:22.690Z,1.27
2023-05-18T05:43:49.164Z,1.42
2023-05-18T05:46:15.816Z,1.40
2023-05-18T05:48:42.317Z,1.30
2023-05-18T05:51:08.815Z,1.70
2023-05-18T05:53:35.383Z,1.52
2023-05-18T05:56:01.862Z,1.55
2023-05-18T05:58:28.297Z,1.45
2023-05-18T06:00:54.861Z,1.45
2023-05-18T06:03:21.419Z,1.30
2023-05-18T06:05:48.087Z,1.33
2023-05-18T06:08:15.776Z,1.45
2023-05-18T06:10:42.817Z,1.45
2023-05-18T06:13:09.330Z,1.30
2023-05-18T06:15:35.920Z,1.30
2023-05-18T06:18:02.403Z,1.70
2023-05-18T06:20:29.660Z,1.48
2023-05-18T06:22:56.594Z,1.40
2023-05-18T06:25:23.168Z,1.42
2023-05-18T06:27:49.802Z,1.73
2023-05-18T06:30:16.955Z,1.52
2023-05-18T06:32:43.612Z,1.60
2023-05-18T06:35:10.162Z,1.50
2023-05-18T06:37:36.602Z,1.80
2023-05-18T06:40:04.829Z,1.75
2023-05-18T06:42:32.802Z,1.45
2023-05-18T06:44:59.293Z,1.38
2023-05-18T06:47:25.975Z,1.83
2023-05-18T06:49:52.450Z,1.52
2023-05-18T06:52:18.926Z,1.48
2023-05-18T06:54:45.512Z,1.45
2023-05-18T06:57:12.346Z,1.50
2023-05-18T06:59:38.856Z,1.52
2023-05-18T07:02:05.517Z,1.50
2023-05-18T07:04:32.036Z,1.60
2023-05-18T07:06:58.585Z,1.30
2023-05-18T07:09:25.356Z,1.58
2023-05-18T07:11:51.877Z,1.60
2023-05-18T07:14:18.371Z,1.50
2023-05-18T07:16:47.545Z,1.88
2023-05-18T07:19:15.003Z,1.80
2023-05-18T07:21:42.232Z,1.80
2023-05-18T07:24:08.725Z,1.83
2023-05-18T07:26:35.292Z,1.98
2023-05-18T07:29:01.891Z,1.70
2023-05-18T07:31:28.475Z,1.88
2023-05-18T07:33:55.019Z,1.98
2023-05-18T07:36:22.066Z,3.05
2023-05-18T07:38:52.980Z,2.33
2023-05-18T07:41:19.448Z,2.13
2023-05-18T07:43:46.006Z,2.28
2023-05-18T07:46:12.522Z,2.22
2023-05-18T07:48:40.760Z,2.50
2023-05-18T07:51:08.105Z,1.95
2023-05-18T07:53:34.866Z,2.65
2023-05-18T07:56:01.636Z,2.10
2023-05-18T07:58:28.135Z,2.65
2023-05-18T08:00:54.587Z,2.28
2023-05-18T08:03:21.325Z,1.90
2023-05-18T08:05:48.162Z,2.42
2023-05-18T08:08:18.758Z,2.20
2023-05-18T08:10:45.198Z,2.33
2023-05-18T08:13:11.783Z,2.10
2023-05-18T08:15:41.014Z,2.10
2023-05-18T08:18:07.504Z,2.25
2023-05-18T08:20:34.491Z,2.25
2023-05-18T08:23:01.093Z,1.95
2023-05-18T08:25:27.568Z,1.95
2023-05-18T08:27:54.109Z,2.15
2023-05-18T08:30:21.737Z,2.03
2023-05-18T08:32:48.683Z,1.85
2023-05-18T08:35:15.388Z,1.85
2023-05-18T08:37:41.912Z,1.92
2023-05-18T08:40:11.347Z,1.70
2023-05-18T08:42:50.390Z,1.98
2023-05-18T08:45:23.196Z,1.95
2023-05-18T08:47:50.986Z,2.20
2023-05-18T08:50:24.128Z,1.95
2023-05-18T08:52:55.407Z,2.40
2023-05-18T08:55:23.833Z,2.13
2023-05-18T08:57:57.974Z,1.80
2023-05-18T09:00:24.988Z,2.20
2023-05-18T09:02:52.182Z,1.73
2023-05-18T09:05:20.361Z,2.25
2023-05-18T09:07:49.891Z,2.20
2023-05-18T09:10:17.704Z,2.00
2023-05-18T09:12:48.193Z,2.30
2023-05-18T09:15:18.365Z,1.83
2023-05-18T09:17:44.887Z,1.85
2023-05-18T09:20:12.288Z,2.92
2023-05-18T09:22:43.164Z,2.20
2023-05-18T09:25:13.356Z,2.25
2023-05-18T09:27:40.403Z,2.15
2023-05-18T09:30:11.224Z,2.25
2023-05-18T09:32:37.914Z,1.77
2023-05-18T09:35:06.444Z,1.92
2023-05-18T09:37:34.039Z,2.10
2023-05-18T09:40:02.515Z,1.70
2023-05-18T09:42:43.103Z,1.88
2023-05-18T09:45:17.686Z,1.83
2023-05-18T09:47:44.334Z,1.80
2023-05-18T09:50:11.463Z,1.70
2023-05-18T09:52:44.960Z,1.70
2023-05-18T09:55:12.268Z,1.70
2023-05-18T09:57:44.140Z,1.80
2023-05-18T10:00:11.746Z,2.33
2023-05-18T10:02:42.458Z,2.03
2023-05-18T10:05:22.863Z,2.00
2023-05-18T10:07:51.458Z,1.80
2023-05-18T10:10:20.418Z,2.08
2023-05-18T10:12:47.064Z,1.73
2023-05-18T10:15:15.779Z,1.92
2023-05-18T10:17:45.102Z,2.30
2023-05-18T10:20:24.482Z,1.48
2023-05-18T10:22:52.049Z,1.95
2023-05-18T10:25:20.312Z,1.88
2023-05-18T10:27:49.109Z,1.83
2023-05-18T10:30:17.886Z,1.77
2023-05-18T10:32:45.807Z,2.05
2023-05-18T10:35:13.577Z,1.92
2023-05-18T10:37:43.464Z,2.05
2023-05-18T10:40:11.330Z,1.65
2023-05-18T10:42:38.470Z,1.77
2023-05-18T10:45:07.337Z,1.52
2023-05-18T10:47:39.736Z,1.95
2023-05-18T10:50:06.906Z,2.03
2023-05-18T10:52:34.022Z,1.67
2023-05-18T10:55:01.178Z,1.85
2023-05-18T10:57:35.274Z,1.95
2023-05-18T11:00:02.968Z,1.95
2023-05-18T11:02:30.030Z,2.00
2023-05-18T11:04:57.211Z,2.20
2023-05-18T11:07:24.297Z,2.20
2023-05-18T11:09:52.050Z,2.20
2023-05-18T11:12:18.776Z,1.85
2023-05-18T11:14:51.053Z,1.90
2023-05-18T11:17:22.390Z,1.80
2023-05-18T11:20:11.864Z,2.25
2023-05-18T11:22:52.721Z,1.90
2023-05-18T11:25:28.236Z,2.53
2023-05-18T11:28:01.761Z,2.35
2023-05-18T11:30:28.828Z,2.00
2023-05-18T11:33:21.247Z,2.10
2023-05-18T11:36:11.438Z,2.85
2023-05-18T11:38:52.788Z,2.20
2023-05-18T11:41:39.211Z,2.28
2023-05-18T11:44:11.450Z,2.17
2023-05-18T11:46:41.195Z,2.20
2023-05-18T11:49:08.103Z,2.00
2023-05-18T11:52:12.658Z,2.30
2023-05-18T11:54:54.083Z,2.00
2023-05-18T11:57:24.924Z,2.10
2023-05-18T11:59:56.576Z,1.80
2023-05-18T12:02:36.483Z,2.17
2023-05-18T12:05:08.301Z,1.98
2023-05-18T12:07:36.364Z,1.90
2023-05-18T12:10:06.844Z,2.28
2023-05-18T12:12:34.127Z,2.10
2023-05-18T12:15:05.483Z,1.73
2023-05-18T12:17:42.068Z,2.03
2023-05-18T12:20:11.881Z,2.22
2023-05-18T12:22:39.628Z,2.33
2023-05-18T12:25:07.103Z,1.90
2023-05-18T12:27:40.776Z,2.30
2023-05-18T12:30:20.443Z,2.03
2023-05-18T12:32:52.992Z,2.50
2023-05-18T12:35:27.317Z,1.95
2023-05-18T12:38:01.520Z,1.90
2023-05-18T12:40:38.641Z,2.25
2023-05-18T12:43:05.196Z,2.00
2023-05-18T12:45:33.676Z,1.95
2023-05-18T12:48:07.211Z,2.60
2023-05-18T12:50:34.911Z,2.20
2023-05-18T12:53:04.328Z,2.03
2023-05-18T12:55:32.128Z,1.73
2023-05-18T12:58:03.480Z,2.30
2023-05-18T13:00:37.248Z,1.90
2023-05-18T13:03:16.299Z,1.70
2023-05-18T13:05:47.779Z,1.80
2023-05-18T13:08:22.156Z,2.00
2023-05-18T13:10:58.058Z,1.80
2023-05-18T13:13:32.464Z,1.83
2023-05-18T13:15:59.613Z,1.75
2023-05-18T13:18:27.715Z,1.50
2023-05-18T13:20:56.391Z,1.98
2023-05-18T13:23:31.943Z,1.65
2023-05-18T13:25:58.989Z,1.85
2023-05-18T13:28:27.447Z,1.80
2023-05-18T13:30:53.927Z,1.63
2023-05-18T13:33:21.492Z,1.85
2023-05-18T13:35:49.687Z,1.80
2023-05-18T13:38:16.538Z,1.77
2023-05-18T13:40:43.122Z,1.60
2023-05-18T13:43:11.823Z,1.60
2023-05-18T13:45:40.059Z,1.85
2023-05-18T13:48:09.413Z,1.50
2023-05-18T13:50:36.772Z,1.77
2023-05-18T13:53:03.397Z,1.52
2023-05-18T13:55:30.055Z,1.77
2023-05-18T13:57:56.931Z,1.42
2023-05-18T14:00:23.590Z,1.65
2023-05-18T14:02:50.250Z,1.77
2023-05-18T14:05:16.881Z,1.70
2023-05-18T14:07:44.089Z,1.70
2023-05-18T14:10:12.513Z,1.52
2023-05-18T14:12:39.313Z,1.55
2023-05-18T14:15:06.443Z,1.30
2023-05-18T14:17:32.997Z,1.60
2023-05-18T14:19:59.710Z,1.50
2023-05-18T14:22:26.527Z,1.50
2023-05-18T14:24:53.439Z,1.48
2023-05-18T14:27:23.194Z,1.40
2023-05-18T14:29:50.833Z,1.38
2023-05-18T14:32:17.803Z,1.40
2023-05-18T14:34:44.266Z,1.48
2023-05-18T14:37:10.773Z,1.50
2023-05-18T14:39:37.890Z,1.58
2023-05-18T14:42:05.335Z,1.40
2023-05-18T14:44:31.924Z,1.50
2023-05-18T14:46:58.470Z,1.50
2023-05-18T14:49:24.939Z,1.40
2023-05-18T14:51:52.106Z,1.40
2023-05-18T14:54:22.574Z,1.50
2023-05-18T14:56:49.080Z,1.50
2023-05-18T14:59:15.681Z,1.70
2023-05-18T15:01:42.152Z,1.45
2023-05-18T15:04:08.677Z,1.50
2023-05-18T15:06:35.230Z,1.30
2023-05-18T15:09:02.020Z,1.70
2023-05-18T15:11:28.481Z,1.92
2023-05-18T15:13:54.923Z,1.63
2023-05-18T15:16:21.389Z,1.23
2023-05-18T15:18:47.959Z,1.48
2023-05-18T15:21:14.461Z,1.58
2023-05-18T15:23:41.095Z,1.95
2023-05-18T15:26:09.212Z,1.60
2023-05-18T15:28:36.117Z,1.50
2023-05-18T15:31:02.577Z,1.60
2023-05-18T15:33:29.092Z,1.80
2023-05-18T15:35:55.618Z,1.80
2023-05-18T15:38:22.142Z,1.75
2023-05-18T15:40:50.363Z,1.92
2023-05-18T15:43:16.928Z,2.00
2023-05-18T15:45:43.467Z,1.88
2023-05-18T15:48:10.110Z,2.30
2023-05-18T15:50:36.619Z,2.90
2023-05-18T15:53:03.095Z,14.48
2023-05-18T15:55:29.586Z,15.38
2023-05-18T15:57:56.183Z,12.27
2023-05-18T16:00:23.823Z,10.52
2023-05-18T16:02:50.454Z,9.68
2023-05-18T16:05:17.067Z,9.13
2023-05-18T16:07:43.741Z,8.90
2023-05-18T16:10:10.542Z,8.23
2023-05-18T16:12:37.006Z,7.78
2023-05-18T16:15:03.598Z,7.50
2023-05-18T16:17:30.148Z,7.10
2023-05-18T16:19:56.751Z,7.32
2023-05-18T16:22:23.362Z,7.30
2023-05-18T16:24:49.827Z,6.70
2023-05-18T16:27:16.345Z,6.63
2023-05-18T16:29:42.911Z,6.82
2023-05-18T16:32:09.483Z,6.93
2023-05-18T16:34:36.062Z,6.65
2023-05-18T16:37:02.513Z,5.63
2023-05-18T16:39:28.976Z,6.25
2023-05-18T16:41:55.487Z,5.43
2023-05-18T16:44:21.930Z,5.55
2023-05-18T16:46:48.463Z,5.22
2023-05-18T16:49:14.956Z,4.95
2023-05-18T16:51:41.548Z,4.60
2023-05-18T16:54:08.070Z,4.18
2023-05-18T16:56:35.818Z,3.50
2023-05-18T16:59:03.053Z,4.10
2023-05-18T17:01:30.918Z,3.60
2023-05-18T17:03:57.737Z,3.58
2023-05-18T17:06:25.395Z,3.83
2023-05-18T17:08:57.561Z,3.33
2023-05-18T17:11:26.853Z,3.47
2023-05-18T17:13:53.734Z,3.50
2023-05-18T17:16:22.112Z,3.50
2023-05-18T17:18:49.160Z,3.47
2023-05-18T17:21:16.256Z,2.85
2023-05-18T17:23:42.795Z,3.20
2023-05-18T17:26:09.258Z,2.90
2023-05-18T17:28:36.006Z,2.50
2023-05-18T17:31:02.723Z,2.80
2023-05-18T17:33:29.256Z,2.72
2023-05-18T17:35:55.753Z,2.80
2023-05-18T17:38:22.693Z,2.78
2023-05-18T17:40:49.252Z,2.42
2023-05-18T17:43:18.702Z,2.47
2023-05-18T17:45:45.165Z,2.45
2023-05-18T17:48:11.656Z,2.28
2023-05-18T17:50:39.054Z,2.60
2023-05-18T17:53:05.499Z,2.45
2023-05-18T17:55:32.062Z,2.35
2023-05-18T17:58:01.012Z,2.35
2023-05-18T18:00:27.585Z,2.33
2023-05-18T18:02:55.327Z,2.35
2023-05-18T18:05:22.122Z,2.60
2023-05-18T18:07:48.568Z,2.28
2023-05-18T18:10:15.087Z,2.00
2023-05-18T18:12:41.689Z,2.60
2023-05-18T18:15:08.669Z,2.53
2023-05-18T18:17:35.213Z,2.15
2023-05-18T18:20:02.120Z,1.92
2023-05-18T18:22:28.606Z,2.40
2023-05-18T18:24:55.065Z,2.00
2023-05-18T18:27:21.568Z,2.00
2023-05-18T18:29:49.140Z,1.88
2023-05-18T18:32:15.596Z,2.17
2023-05-18T18:34:42.052Z,2.17
2023-05-18T18:37:08.510Z,1.92
2023-05-18T18:39:35.441Z,1.95
2023-05-18T18:42:02.091Z,2.10
2023-05-18T18:44:28.649Z,2.00
2023-05-18T18:46:55.255Z,1.80
2023-05-18T18:49:21.806Z,2.13
2023-05-18T18:51:48.371Z,2.03
2023-05-18T18:54:14.978Z,1.80
2023-05-18T18:56:43.889Z,2.13
2023-05-18T18:59:10.470Z,2.00
2023-05-18T19:01:37.286Z,2.20
2023-05-18T19:04:04.386Z,2.00
2023-05-18T19:06:32.051Z,1.90
2023-05-18T19:08:58.546Z,2.00
2023-05-18T19:11:25.143Z,2.00
2023-05-18T19:13:51.707Z,2.08
2023-05-18T19:16:18.530Z,2.05
2023-05-18T19:18:45.375Z,2.05
2023-05-18T19:21:12.025Z,1.70
2023-05-18T19:23:38.477Z,1.70
2023-05-18T19:26:05.139Z,2.00
2023-05-18T19:28:31.911Z,1.83
2023-05-18T19:30:58.357Z,2.05
2023-05-18T19:33:24.840Z,1.90
2023-05-18T19:35:52.832Z,1.77
2023-05-18T19:38:19.513Z,1.90
2023-05-18T19:40:46.038Z,2.13
2023-05-18T19:43:12.584Z,1.90
2023-05-18T19:45:39.171Z,2.03
2023-05-18T19:48:06.048Z,1.90
2023-05-18T19:50:32.614Z,1.77
2023-05-18T19:52:59.096Z,1.88
2023-05-18T19:55:25.843Z,1.98
2023-05-18T19:57:52.335Z,1.80
2023-05-18T20:00:18.921Z,1.88
2023-05-18T20:02:45.410Z,1.90
2023-05-18T20:05:13.202Z,1.85
2023-05-18T20:07:39.736Z,1.80
2023-05-18T20:10:06.696Z,2.03
2023-05-18T20:12:33.208Z,1.63
2023-05-18T20:14:59.839Z,1.73
2023-05-18T20:17:26.428Z,1.90
2023-05-18T20:19:53.431Z,1.95
2023-05-18T20:22:20.319Z,1.95
2023-05-18T20:24:46.805Z,1.90
2023-05-18T20:27:14.678Z,1.80
2023-05-18T20:29:41.506Z,2.10
2023-05-18T20:32:08.011Z,1.80
2023-05-18T20:34:34.650Z,2.28
2023-05-18T20:37:01.180Z,2.97
2023-05-18T20:39:29.073Z,2.42
2023-05-18T20:41:57.689Z,3.30
2023-05-18T20:44:24.988Z,2.90
2023-05-18T20:46:53.080Z,3.35
2023-05-18T20:49:24.796Z,3.60
2023-05-18T20:51:51.392Z,3.67
2023-05-18T20:54:17.970Z,3.20
2023-05-18T20:56:44.633Z,4.00
2023-05-18T20:59:12.605Z,3.35
2023-05-18T21:01:39.620Z,3.22
2023-05-18T21:04:07.151Z,3.53
2023-05-18T21:06:34.449Z,2.97
2023-05-18T21:09:01.443Z,3.40
2023-05-18T21:11:28.179Z,2.83
2023-05-18T21:13:54.660Z,3.25
2023-05-18T21:16:21.232Z,3.13
2023-05-18T21:18:47.944Z,3.00
2023-05-18T21:21:14.444Z,3.30
2023-05-18T21:23:40.947Z,3.00
2023-05-18T21:26:07.484Z,3.08
2023-05-18T21:28:33.927Z,3.13
2023-05-18T21:31:00.543Z,3.53
2023-05-18T21:33:27.127Z,2.72
2023-05-18T21:35:53.719Z,2.90
2023-05-18T21:38:20.195Z,2.80
2023-05-18T21:40:46.909Z,2.70
2023-05-18T21:43:13.520Z,2.70
2023-05-18T21:45:40.427Z,2.95
2023-05-18T21:48:07.091Z,2.70
2023-05-18T21:50:36.533Z,2.60
2023-05-18T21:53:03.399Z,2.60
2023-05-18T21:55:31.307Z,2.90
2023-05-18T21:57:57.828Z,2.65
2023-05-18T22:00:24.493Z,2.40
2023-05-18T22:02:51.031Z,2.78
2023-05-18T22:05:19.810Z,2.88
2023-05-18T22:07:46.568Z,2.55
2023-05-18T22:10:13.077Z,2.50
2023-05-18T22:12:41.785Z,2.47
2023-05-18T22:15:10.372Z,2.17
2023-05-18T22:17:37.032Z,2.50
2023-05-18T22:20:11.315Z,2.45
2023-05-18T22:22:38.354Z,2.42
2023-05-18T22:25:05.132Z,2.60
2023-05-18T22:27:33.777Z,2.10
2023-05-18T22:30:00.341Z,2.40
2023-05-18T22:32:26.948Z,2.25
2023-05-18T22:34:53.850Z,2.10
2023-05-18T22:37:20.302Z,2.60
2023-05-18T22:39:46.744Z,2.58
2023-05-18T22:42:13.184Z,2.30
2023-05-18T22:44:39.684Z,2.10
2023-05-18T22:47:06.420Z,2.53
2023-05-18T22:49:35.752Z,2.53
2023-05-18T22:52:04.266Z,2.13
2023-05-18T22:54:31.206Z,2.30
2023-05-18T22:56:59.470Z,2.10
2023-05-18T22:59:25.928Z,2.22
2023-05-18T23:01:54.646Z,2.47
2023-05-18T23:04:21.586Z,2.17
2023-05-18T23:06:48.840Z,2.00
2023-05-18T23:09:16.019Z,2.20
2023-05-18T23:11:46.245Z,2.40
2023-05-18T23:14:12.880Z,2.33
2023-05-18T23:16:42.648Z,2.20
2023-05-18T23:19:12.501Z,2.20
2023-05-18T23:21:40.115Z,1.80
2023-05-18T23:24:07.942Z,1.80
2023-05-18T23:26:34.453Z,1.90
2023-05-18T23:29:01.440Z,2.15
2023-05-18T23:31:28.115Z,2.20
2023-05-18T23:33:54.876Z,2.30
2023-05-18T23:36:27.132Z,2.10
2023-05-18T23:38:59.024Z,1.98
2023-05-18T23:41:30.493Z,1.88
2023-05-18T23:43:57.778Z,2.08
2023-05-18T23:46:25.065Z,1.92
2023-05-18T23:48:52.516Z,2.10
2023-05-18T23:51:22.889Z,1.95
2023-05-18T23:53:51.548Z,1.80
2023-05-18T23:56:18.198Z,2.15
2023-05-18T23:58:46.232Z,1.95
